Wetterdaten: aktuell Dienstag, 14.07.2020 14:10
Datum Zeit Temp. A. Feuchte A. Luftdruck Regen Wind Richtung Richtung Taupunkt Windchill Windben Empfang
14.07.2020 14:10 17,1 C 80 % 1014,4 hPa 0,2 l/m 9,6 km/h (2 Bft) S-SW 212 13,6 C 17,1 C 19,6 km/h (3 Bft) 99 %
14.07.2020 14:00 17,3 C 80 % 1014,4 hPa 0,0 l/m 7,6 km/h (2 Bft) SW 225 13,8 C 17,3 C 13,7 km/h (3 Bft) 98 %
14.07.2020 13:50 17,8 C 75 % 1014,5 hPa 0,0 l/m 12,6 km/h (3 Bft) S 190 13,3 C 17,8 C 25,5 km/h (4 Bft) 99 %
14.07.2020 13:40 18,7 C 69 % 1014,4 hPa 0,0 l/m 13,5 km/h (3 Bft) S 188 12,9 C 18,7 C 27,4 km/h (4 Bft) 99 %
14.07.2020 13:30 18,8 C 68 % 1014,3 hPa 0,0 l/m 12,8 km/h (3 Bft) SW 221 12,8 C 18,8 C 27,4 km/h (4 Bft) 99 %
14.07.2020 13:20 19,1 C 69 % 1014,3 hPa 0,0 l/m 13,1 km/h (3 Bft) W-SW 244 13,3 C 19,1 C 25,5 km/h (4 Bft) 100 %
14.07.2020 13:10 19,0 C 72 % 1014,3 hPa 0,0 l/m 11,7 km/h (2 Bft) S-SW 213 13,8 C 19,0 C 23,5 km/h (4 Bft) 99 %
14.07.2020 13:00 18,8 C 72 % 1014,5 hPa 0,0 l/m 14,3 km/h (3 Bft) S-SW 201 13,6 C 18,8 C 27,4 km/h (4 Bft) 99 %
14.07.2020 12:50 18,7 C 76 % 1014,4 hPa 0,0 l/m 13,2 km/h (3 Bft) S-SW 205 14,4 C 18,7 C 23,5 km/h (4 Bft) 99 %
14.07.2020 12:40 18,6 C 79 % 1014,6 hPa 0,0 l/m 11,4 km/h (2 Bft) S-SW 211 14,9 C 18,6 C 19,6 km/h (3 Bft) 99 %
14.07.2020 12:30 18,3 C 79 % 1014,6 hPa 0,0 l/m 10,5 km/h (2 Bft) S-SW 204 14,6 C 18,3 C 27,4 km/h (4 Bft) 100 %
14.07.2020 12:20 18,1 C 82 % 1014,6 hPa 0,0 l/m 11,9 km/h (2 Bft) SW 221 15,0 C 18,1 C 25,5 km/h (4 Bft) 99 %
14.07.2020 12:10 18,2 C 80 % 1014,7 hPa 0,0 l/m 10,0 km/h (2 Bft) W-SW 240 14,7 C 18,2 C 27,4 km/h (4 Bft) 100 %
14.07.2020 12:00 18,2 C 79 % 1014,7 hPa 0,0 l/m 10,4 km/h (2 Bft) S-SW 199 14,5 C 18,2 C 21,6 km/h (4 Bft) 100 %
14.07.2020 11:50 18,2 C 77 % 1014,8 hPa 0,0 l/m 11,6 km/h (2 Bft) SW 222 14,1 C 18,2 C 21,6 km/h (4 Bft) 99 %
14.07.2020 11:40 18,3 C 77 % 1014,7 hPa 0,0 l/m 10,1 km/h (2 Bft) W 267 14,2 C 18,3 C 19,6 km/h (3 Bft) 99 %
14.07.2020 11:30 18,3 C 76 % 1014,6 hPa 0,0 l/m 10,8 km/h (2 Bft) SW 220 14,0 C 18,3 C 27,4 km/h (4 Bft) 99 %
14.07.2020 11:20 18,6 C 75 % 1014,6 hPa 0,0 l/m 9,0 km/h (2 Bft) S-SW 192 14,1 C 18,6 C 21,6 km/h (4 Bft) 98 %
14.07.2020 11:10 18,6 C 72 % 1014,5 hPa 0,2 l/m 10,8 km/h (2 Bft) SW 235 13,4 C 18,6 C 23,5 km/h (4 Bft) 100 %
14.07.2020 11:00 18,6 C 71 % 1014,5 hPa 0,0 l/m 11,1 km/h (2 Bft) W-SW 240 13,2 C 18,6 C 23,5 km/h (4 Bft) 100 %
14.07.2020 10:50 18,4 C 72 % 1014,5 hPa 0,0 l/m 10,1 km/h (2 Bft) S-SW 211 13,3 C 18,4 C 17,6 km/h (3 Bft) 98 %
14.07.2020 10:40 18,2 C 74 % 1014,6 hPa 0,0 l/m 8,5 km/h (2 Bft) SW 221 13,5 C 18,2 C 17,6 km/h (3 Bft) 99 %
14.07.2020 10:30 17,9 C 75 % 1014,5 hPa 0,0 l/m 10,1 km/h (2 Bft) SW 221 13,4 C 17,9 C 17,6 km/h (3 Bft) 99 %
14.07.2020 10:20 17,8 C 77 % 1014,5 hPa 0,0 l/m 8,8 km/h (2 Bft) S 185 13,7 C 17,8 C 17,6 km/h (3 Bft) 99 %
14.07.2020 10:10 17,6 C 79 % 1014,5 hPa 0,0 l/m 7,0 km/h (2 Bft) S 191 13,9 C 17,6 C 15,7 km/h (3 Bft) 100 %
14.07.2020 10:00 17,4 C 79 % 1014,4 hPa 0,0 l/m 7,7 km/h (2 Bft) S-SW 205 13,7 C 17,4 C 15,7 km/h (3 Bft) 99 %
14.07.2020 09:50 17,1 C 82 % 1014,5 hPa 0,0 l/m 7,8 km/h (2 Bft) S-SW 195 14,0 C 17,1 C 15,7 km/h (3 Bft) 99 %
14.07.2020 09:40 16,7 C 84 % 1014,5 hPa 0,0 l/m 6,8 km/h (2 Bft) S 180 14,0 C 16,7 C 13,7 km/h (3 Bft) 99 %
14.07.2020 09:30 16,4 C 85 % 1014,5 hPa 0,0 l/m 6,5 km/h (2 Bft) S-SW 208 13,9 C 16,4 C 15,7 km/h (3 Bft) 99 %
14.07.2020 09:20 16,1 C 86 % 1014,6 hPa 0,0 l/m 4,2 km/h (1 Bft) S-SW 209 13,8 C 16,1 C 9,8 km/h (2 Bft) 100 %
14.07.2020 09:10 15,9 C 86 % 1014,6 hPa 0,0 l/m 4,7 km/h (1 Bft) S 175 13,6 C 15,9 C 9,8 km/h (2 Bft) 98 %
14.07.2020 09:00 15,8 C 86 % 1014,8 hPa 0,0 l/m 4,3 km/h (1 Bft) S-SW 213 13,5 C 15,8 C 7,8 km/h (2 Bft) 100 %
14.07.2020 08:50 15,7 C 86 % 1014,9 hPa 0,0 l/m 3,5 km/h (1 Bft) SW 215 13,4 C 15,7 C 7,8 km/h (2 Bft) 98 %
14.07.2020 08:40 15,6 C 86 % 1015,0 hPa 0,0 l/m 3,3 km/h (1 Bft) SW 214 13,3 C 15,6 C 5,9 km/h (2 Bft) 99 %
14.07.2020 08:30 15,6 C 85 % 1015,1 hPa 0,0 l/m 2,9 km/h (1 Bft) SW 215 13,1 C 15,6 C 5,9 km/h (2 Bft) 100 %
14.07.2020 08:20 15,6 C 83 % 1015,1 hPa 0,0 l/m 2,8 km/h (1 Bft) SW 216 12,7 C 15,6 C 5,9 km/h (2 Bft) 99 %
14.07.2020 08:10 15,6 C 83 % 1015,1 hPa 0,0 l/m 3,0 km/h (1 Bft) S-SW 211 12,7 C 15,6 C 7,8 km/h (2 Bft) 100 %
14.07.2020 08:00 15,6 C 81 % 1015,1 hPa 0,0 l/m 4,5 km/h (1 Bft) S-SW 202 12,3 C 15,6 C 9,8 km/h (2 Bft) 99 %
14.07.2020 07:50 15,6 C 80 % 1015,2 hPa 0,0 l/m 4,4 km/h (1 Bft) SW 223 12,2 C 15,6 C 7,8 km/h (2 Bft) 100 %
14.07.2020 07:40 15,6 C 79 % 1015,2 hPa 0,0 l/m 4,1 km/h (1 Bft) W-SW 243 12,0 C 15,6 C 11,8 km/h (2 Bft) 100 %
14.07.2020 07:30 15,5 C 79 % 1015,2 hPa 0,0 l/m 3,4 km/h (1 Bft) SW 235 11,9 C 15,5 C 7,8 km/h (2 Bft) 100 %
14.07.2020 07:20 15,3 C 80 % 1015,2 hPa 0,0 l/m 2,6 km/h (1 Bft) SW 233 11,9 C 15,3 C 7,8 km/h (2 Bft) 98 %
14.07.2020 07:10 15,1 C 82 % 1015,2 hPa 0,0 l/m 2,3 km/h (1 Bft) N 351 12,0 C 15,1 C 3,9 km/h (1 Bft) 99 %
14.07.2020 07:00 14,8 C 83 % 1015,2 hPa 0,0 l/m 0,5 km/h (0 Bft) N 9 11,9 C 14,8 C 3,9 km/h (1 Bft) 99 %
14.07.2020 06:50 14,6 C 84 % 1015,2 hPa 0,0 l/m 0,4 km/h (0 Bft) N 5 11,9 C 14,6 C 3,9 km/h (1 Bft) 98 %
14.07.2020 06:40 14,4 C 84 % 1015,3 hPa 0,0 l/m 1,0 km/h (0 Bft) N 5 11,7 C 14,4 C 3,9 km/h (1 Bft) 100 %
14.07.2020 06:30 14,2 C 84 % 1015,3 hPa 0,0 l/m 0,4 km/h (0 Bft) N 5 11,5 C 14,2 C 2,0 km/h (1 Bft) 100 %
14.07.2020 06:20 14,1 C 85 % 1015,3 hPa 0,0 l/m 0,6 km/h (0 Bft) N 9 11,6 C 14,1 C 2,0 km/h (1 Bft) 98 %
14.07.2020 06:10 13,9 C 86 % 1015,3 hPa 0,0 l/m 1,2 km/h (1 Bft) N 5 11,6 C 13,9 C 3,9 km/h (1 Bft) 99 %
14.07.2020 06:00 13,7 C 86 % 1015,4 hPa 0,0 l/m 0,7 km/h (0 Bft) N 9 11,4 C 13,7 C 3,9 km/h (1 Bft) 98 %
14.07.2020 05:50 13,6 C 87 % 1015,5 hPa 0,0 l/m 1,2 km/h (1 Bft) N 5 11,5 C 13,6 C 5,9 km/h (2 Bft) 98 %
14.07.2020 05:40 13,3 C 87 % 1015,5 hPa 0,0 l/m 1,4 km/h (1 Bft) N 9 11,2 C 13,3 C 3,9 km/h (1 Bft) 99 %
14.07.2020 05:30 13,2 C 88 % 1015,6 hPa 0,0 l/m 0,3 km/h (0 Bft) N 5 11,3 C 13,2 C 3,9 km/h (1 Bft) 99 %
14.07.2020 05:20 13,1 C 88 % 1015,7 hPa 0,0 l/m 1,7 km/h (1 Bft) N 9 11,2 C 13,1 C 3,9 km/h (1 Bft) 98 %
14.07.2020 05:10 12,9 C 88 % 1015,7 hPa 0,0 l/m 1,0 km/h (0 Bft) N 9 11,0 C 12,9 C 3,9 km/h (1 Bft) 99 %
14.07.2020 05:00 12,8 C 88 % 1015,8 hPa 0,0 l/m 0,1 km/h (0 Bft) N 5 10,9 C 12,8 C 2,0 km/h (1 Bft) 100 %
14.07.2020 04:50 12,7 C 88 % 1015,9 hPa 0,0 l/m 0,4 km/h (0 Bft) N 5 10,8 C 12,7 C 3,9 km/h (1 Bft) 100 %
14.07.2020 04:40 12,7 C 88 % 1015,9 hPa 0,0 l/m 0,0 km/h (0 Bft) N 5 10,8 C 12,7 C 0,0 km/h (0 Bft) 99 %
14.07.2020 04:30 12,6 C 88 % 1016,0 hPa 0,0 l/m 0,0 km/h (0 Bft) N 5 10,7 C 12,6 C 0,0 km/h (0 Bft) 99 %
14.07.2020 04:20 12,6 C 88 % 1016,2 hPa 0,0 l/m 0,0 km/h (0 Bft) N 5 10,7 C 12,6 C 0,0 km/h (0 Bft) 99 %
14.07.2020 04:10 12,5 C 88 % 1016,2 hPa 0,0 l/m 0,0 km/h (0 Bft) N 5 10,6 C 12,5 C 0,0 km/h (0 Bft) 99 %
14.07.2020 04:00 12,4 C 88 % 1016,4 hPa 0,0 l/m 0,0 km/h (0 Bft) N 0 10,5 C 12,4 C 0,0 km/h (0 Bft) 100 %
14.07.2020 03:50 12,4 C 88 % 1016,5 hPa 0,0 l/m 0,0 km/h (0 Bft) N 5 10,5 C 12,4 C 0,0 km/h (0 Bft) 98 %
14.07.2020 03:40 12,4 C 88 % 1016,5 hPa 0,0 l/m 0,0 km/h (0 Bft) N 5 10,5 C 12,4 C 0,0 km/h (0 Bft) 99 %
14.07.2020 03:30 12,4 C 88 % 1016,6 hPa 0,0 l/m 0,0 km/h (0 Bft) N 9 10,5 C 12,4 C 0,0 km/h (0 Bft) 100 %
14.07.2020 03:20 12,5 C 88 % 1016,7 hPa 0,0 l/m 0,0 km/h (0 Bft) N 9 10,6 C 12,5 C 0,0 km/h (0 Bft) 98 %
14.07.2020 03:10 12,5 C 88 % 1016,8 hPa 0,0 l/m 0,0 km/h (0 Bft) N 9 10,6 C 12,5 C 2,0 km/h (1 Bft) 99 %
14.07.2020 03:00 12,6 C 88 % 1016,9 hPa 0,0 l/m 0,2 km/h (0 Bft) N 5 10,7 C 12,6 C 2,0 km/h (1 Bft) 100 %
14.07.2020 02:50 12,7 C 87 % 1017,1 hPa 0,0 l/m 0,0 km/h (0 Bft) N 5 10,6 C 12,7 C 0,0 km/h (0 Bft) 98 %
14.07.2020 02:40 12,7 C 87 % 1017,1 hPa 0,0 l/m 0,0 km/h (0 Bft) N 9 10,6 C 12,7 C 0,0 km/h (0 Bft) 100 %
14.07.2020 02:30 12,8 C 86 % 1017,2 hPa 0,0 l/m 0,0 km/h (0 Bft) N 9 10,5 C 12,8 C 0,0 km/h (0 Bft) 99 %
14.07.2020 02:20 12,9 C 86 % 1017,3 hPa 0,0 l/m 0,0 km/h (0 Bft) N 5 10,6 C 12,9 C 0,0 km/h (0 Bft) 99 %
14.07.2020 02:10 13,0 C 86 % 1017,4 hPa 0,0 l/m 0,3 km/h (0 Bft) N 5 10,7 C 13,0 C 3,9 km/h (1 Bft) 100 %
14.07.2020 02:00 13,2 C 85 % 1017,4 hPa 0,0 l/m 0,0 km/h (0 Bft) N 9 10,7 C 13,2 C 2,0 km/h (1 Bft) 99 %
14.07.2020 01:50 13,3 C 86 % 1017,5 hPa 0,0 l/m 0,1 km/h (0 Bft) N 9 11,0 C 13,3 C 2,0 km/h (1 Bft) 100 %
14.07.2020 01:40 13,4 C 85 % 1017,5 hPa 0,0 l/m 0,1 km/h (0 Bft) N 9 10,9 C 13,4 C 2,0 km/h (1 Bft) 99 %
14.07.2020 01:30 13,6 C 85 % 1017,5 hPa 0,0 l/m 0,0 km/h (0 Bft) N 9 11,1 C 13,6 C 2,0 km/h (1 Bft) 99 %
14.07.2020 01:20 13,7 C 85 % 1017,7 hPa 0,0 l/m 0,0 km/h (0 Bft) N 9 11,2 C 13,7 C 2,0 km/h (1 Bft) 99 %
14.07.2020 01:10 13,9 C 85 % 1017,7 hPa 0,0 l/m 0,1 km/h (0 Bft) N 9 11,4 C 13,9 C 2,0 km/h (1 Bft) 100 %
14.07.2020 01:00 14,1 C 85 % 1017,8 hPa 0,0 l/m 0,0 km/h (0 Bft) N 9 11,6 C 14,1 C 0,0 km/h (0 Bft) 99 %
14.07.2020 00:50 14,2 C 84 % 1017,9 hPa 0,0 l/m 0,0 km/h (0 Bft) N 9 11,5 C 14,2 C 0,0 km/h (0 Bft) 100 %
14.07.2020 00:40 14,4 C 84 % 1018,0 hPa 0,0 l/m 0,0 km/h (0 Bft) N 5 11,7 C 14,4 C 2,0 km/h (1 Bft) 99 %
14.07.2020 00:30 14,6 C 83 % 1018,0 hPa 0,0 l/m 0,0 km/h (0 Bft) N 9 11,7 C 14,6 C 0,0 km/h (0 Bft) 98 %
14.07.2020 00:20 14,7 C 82 % 1018,2 hPa 0,0 l/m 0,0 km/h (0 Bft) N 5 11,7 C 14,7 C 0,0 km/h (0 Bft) 99 %
14.07.2020 00:10 15,0 C 82 % 1018,3 hPa 0,0 l/m 0,2 km/h (0 Bft) N 9 12,0 C 15,0 C 2,0 km/h (1 Bft) 99 %
14.07.2020 00:00 15,2 C 81 % 1018,4 hPa 0,0 l/m 0,0 km/h (0 Bft) N 9 12,0 C 15,2 C 0,0 km/h (0 Bft) 99 %
13.07.2020 23:50 15,4 C 80 % 1018,5 hPa 0,0 l/m 0,0 km/h (0 Bft) N 9 12,0 C 15,4 C 0,0 km/h (0 Bft) 99 %
13.07.2020 23:40 15,7 C 78 % 1018,5 hPa 0,0 l/m 0,0 km/h (0 Bft) N 9 11,9 C 15,7 C 0,0 km/h (0 Bft) 98 %
13.07.2020 23:30 15,9 C 77 % 1018,6 hPa 0,0 l/m 0,0 km/h (0 Bft) N 9 11,9 C 15,9 C 0,0 km/h (0 Bft) 100 %
13.07.2020 23:20 16,2 C 76 % 1018,6 hPa 0,0 l/m 0,0 km/h (0 Bft) N 9 12,0 C 16,2 C 0,0 km/h (0 Bft) 100 %
13.07.2020 23:10 16,5 C 75 % 1018,6 hPa 0,0 l/m 0,0 km/h (0 Bft) N 5 12,1 C 16,5 C 0,0 km/h (0 Bft) 99 %
13.07.2020 23:00 16,8 C 73 % 1018,7 hPa 0,0 l/m 0,0 km/h (0 Bft) N 9 11,9 C 16,8 C 0,0 km/h (0 Bft) 99 %
13.07.2020 22:50 17,1 C 71 % 1018,7 hPa 0,0 l/m 0,0 km/h (0 Bft) N 9 11,8 C 17,1 C 0,0 km/h (0 Bft) 99 %
13.07.2020 22:40 17,4 C 69 % 1018,8 hPa 0,0 l/m 0,0 km/h (0 Bft) N 5 11,7 C 17,4 C 0,0 km/h (0 Bft) 100 %
13.07.2020 22:30 17,7 C 67 % 1018,9 hPa 0,0 l/m 0,0 km/h (0 Bft) N 5 11,5 C 17,7 C 0,0 km/h (0 Bft) 100 %
13.07.2020 22:20 18,1 C 64 % 1018,9 hPa 0,0 l/m 0,0 km/h (0 Bft) N 9 11,2 C 18,1 C 0,0 km/h (0 Bft) 98 %
13.07.2020 22:10 18,4 C 62 % 1019,0 hPa 0,0 l/m 0,0 km/h (0 Bft) N 9 11,0 C 18,4 C 2,0 km/h (1 Bft) 98 %
13.07.2020 22:00 18,8 C 61 % 1019,0 hPa 0,0 l/m 0,0 km/h (0 Bft) N 0 11,1 C 18,8 C 0,0 km/h (0 Bft) 100 %
13.07.2020 21:50 19,3 C 61 % 1018,9 hPa 0,0 l/m 0,1 km/h (0 Bft) N 9 11,6 C 19,3 C 2,0 km/h (1 Bft) 100 %
13.07.2020 21:40 19,7 C 59 % 1018,9 hPa 0,0 l/m 0,3 km/h (0 Bft) N 9 11,5 C 19,7 C 3,9 km/h (1 Bft) 99 %
13.07.2020 21:30 20,1 C 58 % 1018,9 hPa 0,0 l/m 1,1 km/h (1 Bft) N 9 11,6 C 20,1 C 5,9 km/h (2 Bft) 100 %
13.07.2020 21:20 20,6 C 57 % 1018,9 hPa 0,0 l/m 1,1 km/h (1 Bft) N 9 11,8 C 20,6 C 3,9 km/h (1 Bft) 100 %
13.07.2020 21:10 21,1 C 56 % 1018,8 hPa 0,0 l/m 1,0 km/h (0 Bft) N 5 12,0 C 21,1 C 3,9 km/h (1 Bft) 100 %
13.07.2020 21:00 21,4 C 54 % 1018,8 hPa 0,0 l/m 1,1 km/h (1 Bft) N 9 11,7 C 21,4 C 5,9 km/h (2 Bft) 99 %
13.07.2020 20:50 21,9 C 52 % 1018,9 hPa 0,0 l/m 1,1 km/h (1 Bft) N 9 11,6 C 21,9 C 5,9 km/h (2 Bft) 100 %
13.07.2020 20:40 22,5 C 52 % 1018,9 hPa 0,0 l/m 1,8 km/h (1 Bft) N-NW 344 12,1 C 22,5 C 5,9 km/h (2 Bft) 98 %
13.07.2020 20:30 23,0 C 50 % 1019,1 hPa 0,0 l/m 3,1 km/h (1 Bft) NW 313 12,0 C 23,0 C 7,8 km/h (2 Bft) 100 %
13.07.2020 20:20 23,4 C 48 % 1019,1 hPa 0,0 l/m 3,0 km/h (1 Bft) N-NW 340 11,8 C 23,4 C 5,9 km/h (2 Bft) 99 %
13.07.2020 20:10 23,6 C 48 % 1019,2 hPa 0,0 l/m 2,5 km/h (1 Bft) N-NW 336 11,9 C 23,6 C 7,8 km/h (2 Bft) 99 %
13.07.2020 20:00 23,8 C 47 % 1019,3 hPa 0,0 l/m 3,5 km/h (1 Bft) NW 318 11,8 C 23,8 C 9,8 km/h (2 Bft) 99 %
13.07.2020 19:50 24,1 C 48 % 1019,3 hPa 0,0 l/m 3,8 km/h (1 Bft) NW 317 12,4 C 24,1 C 11,8 km/h (2 Bft) 100 %
13.07.2020 19:40 24,1 C 47 % 1019,4 hPa 0,0 l/m 5,2 km/h (1 Bft) NW 315 12,1 C 24,1 C 15,7 km/h (3 Bft) 98 %
13.07.2020 19:30 23,8 C 48 % 1019,4 hPa 0,0 l/m 4,8 km/h (1 Bft) N-NW 341 12,1 C 23,8 C 15,7 km/h (3 Bft) 100 %
13.07.2020 19:20 23,2 C 48 % 1019,5 hPa 0,0 l/m 4,3 km/h (1 Bft) W-SW 253 11,6 C 23,2 C 9,8 km/h (2 Bft) 97 %
13.07.2020 19:13 23,0 C 52 % 1019,5 hPa 0,0 l/m 3,5 km/h (1 Bft) S-SW 209 12,6 C 23,0 C 9,8 km/h (2 Bft) 99 %
13.07.2020 19:00 22,8 C 48 % 1019,6 hPa 0,0 l/m 3,9 km/h (1 Bft) SW 225 11,2 C 22,8 C 11,8 km/h (2 Bft) 100 %
13.07.2020 18:50 23,4 C 48 % 1019,7 hPa 0,0 l/m 7,8 km/h (2 Bft) SW 225 11,8 C 23,4 C 19,6 km/h (3 Bft) 100 %
13.07.2020 18:40 23,7 C 46 % 1019,8 hPa 0,0 l/m 3,6 km/h (1 Bft) W 263 11,4 C 23,7 C 13,7 km/h (3 Bft) 98 %
13.07.2020 18:30 23,5 C 48 % 1019,9 hPa 0,0 l/m 2,7 km/h (1 Bft) W 281 11,8 C 23,5 C 9,8 km/h (2 Bft) 100 %
13.07.2020 18:20 23,4 C 47 % 1020,0 hPa 0,0 l/m 4,4 km/h (1 Bft) W-SW 253 11,4 C 23,4 C 11,8 km/h (2 Bft) 100 %
13.07.2020 18:10 23,3 C 46 % 1020,0 hPa 0,0 l/m 5,0 km/h (1 Bft) W 273 11,0 C 23,3 C 15,7 km/h (3 Bft) 99 %
13.07.2020 18:00 23,0 C 48 % 1020,1 hPa 0,0 l/m 4,8 km/h (1 Bft) S-SO 167 11,4 C 23,0 C 13,7 km/h (3 Bft) 99 %
13.07.2020 17:50 23,1 C 48 % 1020,3 hPa 0,0 l/m 5,2 km/h (1 Bft) S-SW 201 11,5 C 23,1 C 13,7 km/h (3 Bft) 99 %
13.07.2020 17:40 23,2 C 47 % 1020,4 hPa 0,0 l/m 5,1 km/h (1 Bft) SW 229 11,3 C 23,2 C 13,7 km/h (3 Bft) 98 %
13.07.2020 17:30 23,7 C 47 % 1020,5 hPa 0,0 l/m 7,4 km/h (2 Bft) S-SW 203 11,7 C 23,7 C 17,6 km/h (3 Bft) 99 %
13.07.2020 17:20 23,5 C 48 % 1020,6 hPa 0,0 l/m 4,1 km/h (1 Bft) SW 219 11,8 C 23,5 C 17,6 km/h (3 Bft) 99 %
13.07.2020 17:10 23,1 C 50 % 1020,6 hPa 0,0 l/m 7,8 km/h (2 Bft) NW 315 12,1 C 23,1 C 19,6 km/h (3 Bft) 100 %
13.07.2020 17:00 23,3 C 48 % 1020,7 hPa 0,0 l/m 5,9 km/h (2 Bft) SW 225 11,7 C 23,3 C 11,8 km/h (2 Bft) 100 %
13.07.2020 16:50 23,3 C 46 % 1020,8 hPa 0,0 l/m 3,9 km/h (1 Bft) SW 225 11,0 C 23,3 C 13,7 km/h (3 Bft) 100 %
13.07.2020 16:40 23,5 C 46 % 1020,9 hPa 0,0 l/m 5,9 km/h (2 Bft) NW 315 11,2 C 23,5 C 13,7 km/h (3 Bft) 100 %
13.07.2020 16:30 23,9 C 47 % 1021,0 hPa 0,0 l/m 5,9 km/h (2 Bft) NW 315 11,9 C 23,9 C 17,6 km/h (3 Bft) 100 %
13.07.2020 16:20 24,1 C 46 % 1021,2 hPa 0,0 l/m 5,9 km/h (2 Bft) NW 315 11,7 C 24,1 C 15,7 km/h (3 Bft) 100 %
13.07.2020 16:10 23,6 C 48 % 1021,2 hPa 0,0 l/m 7,8 km/h (2 Bft) S-SW 202 11,9 C 23,6 C 13,7 km/h (3 Bft) 99 %
13.07.2020 16:00 23,7 C 44 % 1021,4 hPa 0,0 l/m 7,8 km/h (2 Bft) S-SW 202 10,7 C 23,7 C 19,6 km/h (3 Bft) 100 %
13.07.2020 15:50 23,7 C 46 % 1021,5 hPa 0,0 l/m 6,2 km/h (2 Bft) SO 140 11,4 C 23,7 C 15,7 km/h (3 Bft) 99 %
13.07.2020 15:40 23,8 C 47 % 1021,6 hPa 0,0 l/m 8,6 km/h (2 Bft) SW 234 11,8 C 23,8 C 25,5 km/h (4 Bft) 99 %
13.07.2020 15:30 23,3 C 49 % 1021,6 hPa 0,0 l/m 5,5 km/h (1 Bft) S-SW 205 12,0 C 23,3 C 17,6 km/h (3 Bft) 99 %
13.07.2020 15:20 23,1 C 48 % 1021,8 hPa 0,0 l/m 8,8 km/h (2 Bft) S-SW 213 11,5 C 23,1 C 19,6 km/h (3 Bft) 100 %
13.07.2020 15:10 23,2 C 49 % 1021,8 hPa 0,0 l/m 5,3 km/h (1 Bft) SW 220 11,9 C 23,2 C 13,7 km/h (3 Bft) 98 %
13.07.2020 15:04 23,1 C 49 % 1021,9 hPa 0,0 l/m 9,0 km/h (2 Bft) SW 232 11,8 C 23,1 C 17,6 km/h (3 Bft) 92 %
13.07.2020 15:03 23,1 C 49 % 1021,9 hPa 0,0 l/m 6,4 km/h (2 Bft) W-SW 237 11,8 C 23,1 C 19,6 km/h (3 Bft) 100 %
_ Min-Zeit 03:20 16:00 13:10 - 22:00 - - 03:30 03:30 22:00 15:04
Minimum _ 12,4 C 44 % 1014,3 hPa - 0,0 km/h (0 Bft) - - 10,5 C 12,4 C 0,0 km/h (0 Bft) 92 %
_ Max-Zeit 16:20 03:00 15:03 11:10 13:00 - - 12:20 16:20 11:30 15:20
Maximum _ 24,1 C 88 % 1021,9 hPa 0,2 l/m 14,3 km/h
S-SW (3 Bft)
- - 15,0 C 24,1 C 27,4 km/h
SW (4 Bft)
100 %
Durchschnitt _ 18,1 C 70 % 1017,6 hPa #0,4 l/m 4,1 km/h (1 Bft) N - 12,0 C 18,1 C 10,2 km/h (2 Bft) 99 %